Time;durP1;ratioP1;P1;durP2;ratioP2;P2;SDS_P1;SDS_P2;PMS_P1;PMS_P2;Temp;Humidity;BMP_temperature;BMP_pressure;BME280_temperature;BME280_humidity;BME280_pressure;Samples;Min_cycle;Max_cycle;Signal;HPM_P1;HPM_P2
2022/04/11 00:00:23;;;;;;;5.43;4.80;;;;;;;;;;5016425;28;20207;-72
2022/04/11 00:02:49;;;;;;;6.13;4.63;;;;;;;;;;5026187;28;20206;-73
2022/04/11 00:05:14;;;;;;;5.53;4.70;;;;;;;;;;5021794;28;20214;-73
2022/04/11 00:07:41;;;;;;;5.03;4.43;;;;;;;;;;5024920;28;20209;-73
2022/04/11 00:10:07;;;;;;;4.57;3.87;;;;;;;;;;5019461;28;20206;-73
2022/04/11 00:12:34;;;;;;;6.13;4.70;;;;;;;;;;5016228;28;20183;-73
2022/04/11 00:15:00;;;;;;;5.60;4.93;;;;;;;;;;5021741;28;20186;-73
2022/04/11 00:17:25;;;;;;;8.67;5.00;;;;;;;;;;5022418;28;20178;-73
2022/04/11 00:19:50;;;;;;;5.80;4.70;;;;;;;;;;5016066;28;20213;-73
2022/04/11 00:22:15;;;;;;;8.07;5.10;;;;;;;;;;5028480;28;20269;-73
2022/04/11 00:24:40;;;;;;;7.57;4.90;;;;;;;;;;5021597;28;20181;-73
2022/04/11 00:27:06;;;;;;;6.83;4.87;;;;;;;;;;5023374;28;20245;-73
2022/04/11 00:29:32;;;;;;;7.13;4.80;;;;;;;;;;5028578;28;20214;-73
2022/04/11 00:31:57;;;;;;;6.90;5.07;;;;;;;;;;5029243;28;20179;-73
2022/04/11 00:34:22;;;;;;;7.57;4.77;;;;;;;;;;5020992;28;20264;-72
2022/04/11 00:36:47;;;;;;;7.00;5.00;;;;;;;;;;5018178;28;20179;-73
2022/04/11 00:39:13;;;;;;;6.50;5.00;;;;;;;;;;5020382;28;20289;-73
2022/04/11 00:41:38;;;;;;;6.43;4.60;;;;;;;;;;5020743;28;20198;-73
2022/04/11 00:44:04;;;;;;;6.20;4.13;;;;;;;;;;5027800;28;20186;-72
2022/04/11 00:46:30;;;;;;;6.47;4.63;;;;;;;;;;5021271;28;20178;-73
2022/04/11 00:48:55;;;;;;;5.07;4.23;;;;;;;;;;5025567;28;20385;-72
2022/04/11 00:51:22;;;;;;;6.37;4.43;;;;;;;;;;5016972;28;20263;-73
2022/04/11 00:53:48;;;;;;;5.27;4.23;;;;;;;;;;5021949;28;20179;-73
2022/04/11 00:56:15;;;;;;;6.93;4.60;;;;;;;;;;5021249;28;20186;-73
2022/04/11 00:58:40;;;;;;;6.97;4.80;;;;;;;;;;5026585;28;20569;-73
2022/04/11 01:01:06;;;;;;;5.80;4.50;;;;;;;;;;5021414;28;20179;-73
2022/04/11 01:03:32;;;;;;;7.13;4.03;;;;;;;;;;5027066;28;20299;-73
2022/04/11 01:05:57;;;;;;;8.47;4.20;;;;;;;;;;5022995;28;20322;-73
2022/04/11 01:08:22;;;;;;;10.10;4.10;;;;;;;;;;5023451;28;20183;-73
2022/04/11 01:10:48;;;;;;;5.70;4.30;;;;;;;;;;5021688;28;20237;-73
2022/04/11 01:13:14;;;;;;;5.87;4.13;;;;;;;;;;5022488;28;20233;-73
2022/04/11 01:15:39;;;;;;;5.53;3.93;;;;;;;;;;5020800;28;20210;-73
2022/04/11 01:18:04;;;;;;;4.83;4.17;;;;;;;;;;5016572;28;20318;-73
2022/04/11 01:20:29;;;;;;;8.20;4.57;;;;;;;;;;5024314;28;20202;-73
2022/04/11 01:22:55;;;;;;;4.83;4.13;;;;;;;;;;5025553;28;20179;-73
2022/04/11 01:25:20;;;;;;;6.77;4.37;;;;;;;;;;5025327;28;20186;-73
2022/04/11 01:27:46;;;;;;;6.80;5.17;;;;;;;;;;5024819;28;20170;-73
2022/04/11 01:30:12;;;;;;;7.27;4.90;;;;;;;;;;5021369;28;20180;-73
2022/04/11 01:32:38;;;;;;;5.33;4.37;;;;;;;;;;5027615;28;20179;-73
2022/04/11 01:35:04;;;;;;;6.50;4.30;;;;;;;;;;5029591;28;20206;-73
2022/04/11 01:37:29;;;;;;;7.77;4.57;;;;;;;;;;5019078;28;20171;-73
2022/04/11 01:39:55;;;;;;;6.20;4.47;;;;;;;;;;5025327;28;20201;-73
2022/04/11 01:42:20;;;;;;;5.23;4.17;;;;;;;;;;5019180;28;20176;-73
2022/04/11 01:44:45;;;;;;;5.53;4.53;;;;;;;;;;5021558;28;20225;-73
2022/04/11 01:47:11;;;;;;;4.90;4.40;;;;;;;;;;5023897;28;20178;-73
2022/04/11 01:49:36;;;;;;;6.03;4.23;;;;;;;;;;5025154;28;20190;-72
2022/04/11 01:52:02;;;;;;;4.50;4.07;;;;;;;;;;5020469;28;20180;-73
2022/04/11 01:54:27;;;;;;;7.20;4.63;;;;;;;;;;5022114;28;20171;-73
2022/04/11 01:56:52;;;;;;;5.23;4.17;;;;;;;;;;5032531;28;20293;-73
2022/04/11 01:59:17;;;;;;;6.27;4.63;;;;;;;;;;5022578;28;20208;-73
2022/04/11 02:01:43;;;;;;;5.37;3.93;;;;;;;;;;5015725;28;20171;-73
2022/04/11 02:04:08;;;;;;;4.43;3.97;;;;;;;;;;5018198;28;20215;-73
2022/04/11 02:06:33;;;;;;;5.67;4.60;;;;;;;;;;5013134;28;20178;-73
2022/04/11 02:08:58;;;;;;;5.03;4.40;;;;;;;;;;5016520;28;20175;-73
2022/04/11 02:11:24;;;;;;;7.67;4.63;;;;;;;;;;5016751;28;21225;-72
2022/04/11 02:13:49;;;;;;;5.80;4.57;;;;;;;;;;5022420;28;20218;-73
2022/04/11 02:16:14;;;;;;;6.90;4.70;;;;;;;;;;5021190;28;20182;-73
2022/04/11 02:18:39;;;;;;;5.97;4.80;;;;;;;;;;5022144;28;20265;-73
2022/04/11 02:21:04;;;;;;;5.25;4.75;;;;;;;;;;5019436;28;20195;-72
2022/04/11 02:23:29;;;;;;;7.80;4.83;;;;;;;;;;5018338;28;20232;-73
2022/04/11 02:25:55;;;;;;;6.13;4.83;;;;;;;;;;5018131;28;20172;-73
2022/04/11 02:28:20;;;;;;;5.80;5.23;;;;;;;;;;5020806;28;20396;-73
2022/04/11 02:30:46;;;;;;;5.83;5.20;;;;;;;;;;5019978;28;20178;-73
2022/04/11 02:33:11;;;;;;;5.43;4.93;;;;;;;;;;5020543;28;20217;-73
2022/04/11 02:35:36;;;;;;;7.13;5.70;;;;;;;;;;5016280;28;20188;-73
2022/04/11 02:38:01;;;;;;;8.13;5.40;;;;;;;;;;5018191;28;20262;-73
2022/04/11 02:40:27;;;;;;;6.57;5.90;;;;;;;;;;5016590;28;20209;-73
2022/04/11 02:42:52;;;;;;;7.97;5.50;;;;;;;;;;5026062;28;20166;-73
2022/04/11 02:45:17;;;;;;;6.90;5.60;;;;;;;;;;5023209;28;20183;-73
2022/04/11 02:47:43;;;;;;;9.23;6.80;;;;;;;;;;5017293;28;20175;-73
2022/04/11 02:50:11;;;;;;;6.93;5.70;;;;;;;;;;5014739;28;20186;-73
2022/04/11 02:52:36;;;;;;;6.90;5.73;;;;;;;;;;5028071;28;20209;-73
2022/04/11 02:55:01;;;;;;;7.07;5.97;;;;;;;;;;5017959;28;20206;-73
2022/04/11 02:57:26;;;;;;;7.13;5.40;;;;;;;;;;5016510;28;20193;-73
2022/04/11 02:59:52;;;;;;;7.77;6.67;;;;;;;;;;5017574;28;20202;-73
2022/04/11 03:02:18;;;;;;;6.50;5.37;;;;;;;;;;5016644;28;20198;-73
2022/04/11 03:04:43;;;;;;;6.77;5.63;;;;;;;;;;5017751;28;20282;-73
2022/04/11 03:07:08;;;;;;;9.30;6.37;;;;;;;;;;5022978;28;20266;-73
2022/04/11 03:09:33;;;;;;;7.90;6.23;;;;;;;;;;5022540;28;20255;-73
2022/04/11 03:11:59;;;;;;;11.53;6.60;;;;;;;;;;5021353;28;20182;-73
2022/04/11 03:14:24;;;;;;;9.00;7.63;;;;;;;;;;5029854;28;20189;-73
2022/04/11 03:16:49;;;;;;;9.80;6.63;;;;;;;;;;5021522;28;20171;-73
2022/04/11 03:19:15;;;;;;;10.10;6.77;;;;;;;;;;5021858;28;20227;-73
2022/04/11 03:21:40;;;;;;;11.47;7.40;;;;;;;;;;5021304;28;20180;-73
2022/04/11 03:24:06;;;;;;;8.50;6.60;;;;;;;;;;5027668;28;20257;-73
2022/04/11 03:26:31;;;;;;;8.40;6.57;;;;;;;;;;5022393;28;20192;-73
2022/04/11 03:28:56;;;;;;;8.73;6.60;;;;;;;;;;5018981;28;20214;-73
2022/04/11 03:31:21;;;;;;;9.90;5.93;;;;;;;;;;5024154;28;20224;-72
2022/04/11 03:33:47;;;;;;;8.30;6.70;;;;;;;;;;5022818;28;20183;-73
2022/04/11 03:36:12;;;;;;;10.57;6.70;;;;;;;;;;5024696;28;20228;-72
2022/04/11 03:38:37;;;;;;;7.37;6.23;;;;;;;;;;5016006;28;20171;-73
2022/04/11 03:41:03;;;;;;;9.40;6.73;;;;;;;;;;5020941;28;20198;-72
2022/04/11 03:43:28;;;;;;;9.67;7.07;;;;;;;;;;5020940;28;20185;-73
2022/04/11 03:45:53;;;;;;;7.22;6.38;;;;;;;;;;5018107;28;20214;-73
2022/04/11 03:48:18;;;;;;;8.00;5.80;;;;;;;;;;5017509;28;20183;-73
2022/04/11 03:50:43;;;;;;;7.50;5.50;;;;;;;;;;5014809;28;20186;-73
2022/04/11 03:53:08;;;;;;;7.13;6.27;;;;;;;;;;5019567;28;20326;-72
2022/04/11 03:55:34;;;;;;;7.40;6.53;;;;;;;;;;5014385;28;20273;-72
2022/04/11 03:57:59;;;;;;;9.53;6.63;;;;;;;;;;5022055;28;20184;-72
2022/04/11 04:00:24;;;;;;;9.37;6.20;;;;;;;;;;5019541;28;20214;-72
2022/04/11 04:02:49;;;;;;;7.20;6.23;;;;;;;;;;5012927;28;20190;-72
2022/04/11 04:05:15;;;;;;;8.93;6.53;;;;;;;;;;5016827;28;20203;-72
2022/04/11 04:07:40;;;;;;;8.23;6.53;;;;;;;;;;5014946;28;20182;-72
2022/04/11 04:10:06;;;;;;;7.23;6.33;;;;;;;;;;5013927;28;20198;-72
2022/04/11 04:12:31;;;;;;;8.30;6.30;;;;;;;;;;5011125;28;20778;-72
2022/04/11 04:14:56;;;;;;;8.50;7.03;;;;;;;;;;5019674;28;20187;-72
2022/04/11 04:17:22;;;;;;;7.60;6.47;;;;;;;;;;5016281;28;20178;-72
2022/04/11 04:19:47;;;;;;;10.17;6.57;;;;;;;;;;5019694;28;20246;-72
2022/04/11 04:22:12;;;;;;;9.07;6.43;;;;;;;;;;5021138;28;20179;-72
2022/04/11 04:24:37;;;;;;;6.60;5.90;;;;;;;;;;5015060;28;20213;-72
2022/04/11 04:27:05;;;;;;;7.07;6.37;;;;;;;;;;5022183;28;20198;-72
2022/04/11 04:29:31;;;;;;;7.10;6.30;;;;;;;;;;5017403;28;20182;-72
2022/04/11 04:31:56;;;;;;;8.90;6.73;;;;;;;;;;5034589;28;20179;-72
2022/04/11 04:34:21;;;;;;;8.07;6.43;;;;;;;;;;5022087;28;20186;-72
2022/04/11 04:36:47;;;;;;;6.73;6.13;;;;;;;;;;5022374;28;20186;-72
2022/04/11 04:39:12;;;;;;;7.37;6.23;;;;;;;;;;5020676;28;20202;-71
2022/04/11 04:41:40;;;;;;;9.00;6.27;;;;;;;;;;5022562;28;20234;-72
2022/04/11 04:44:08;;;;;;;10.20;6.33;;;;;;;;;;5023141;28;20186;-71
2022/04/11 04:46:33;;;;;;;8.13;6.10;;;;;;;;;;5019892;28;20190;-72
2022/04/11 04:48:59;;;;;;;10.03;6.47;;;;;;;;;;5022686;28;20164;-72
2022/04/11 04:51:24;;;;;;;10.50;6.90;;;;;;;;;;5016232;28;20191;-72
2022/04/11 04:53:49;;;;;;;10.63;8.10;;;;;;;;;;5021258;28;20225;-72
2022/04/11 04:56:14;;;;;;;8.43;6.37;;;;;;;;;;5017921;28;20182;-72
2022/04/11 04:58:40;;;;;;;7.93;7.13;;;;;;;;;;5020873;28;20505;-72
2022/04/11 05:01:05;;;;;;;9.83;7.50;;;;;;;;;;5012143;28;20207;-72
2022/04/11 05:03:30;;;;;;;7.17;5.80;;;;;;;;;;5015357;28;20209;-72
2022/04/11 05:05:55;;;;;;;8.17;6.07;;;;;;;;;;5012446;28;20171;-71
2022/04/11 05:08:21;;;;;;;8.30;6.70;;;;;;;;;;5013924;28;20189;-75
2022/04/11 05:10:46;;;;;;;8.40;6.47;;;;;;;;;;5021384;28;20236;-75
2022/04/11 05:13:11;;;;;;;14.10;10.33;;;;;;;;;;5017805;28;20179;-75
2022/04/11 05:15:36;;;;;;;9.77;6.23;;;;;;;;;;5026079;28;20179;-75
2022/04/11 05:18:02;;;;;;;11.17;6.63;;;;;;;;;;5023868;28;20226;-76
2022/04/11 05:20:27;;;;;;;10.57;6.90;;;;;;;;;;5019538;28;20261;-76
2022/04/11 05:22:52;;;;;;;11.03;6.67;;;;;;;;;;5018010;28;20195;-76
2022/04/11 05:25:17;;;;;;;12.00;6.33;;;;;;;;;;5017846;28;20187;-76
2022/04/11 05:27:42;;;;;;;7.97;6.70;;;;;;;;;;5029195;28;20178;-76
2022/04/11 05:30:08;;;;;;;8.47;6.50;;;;;;;;;;5018307;28;20186;-77
2022/04/11 05:32:33;;;;;;;9.67;7.90;;;;;;;;;;5020503;28;20207;-76
2022/04/11 05:34:58;;;;;;;9.63;6.57;;;;;;;;;;5018681;28;20185;-77
2022/04/11 05:37:24;;;;;;;9.27;6.60;;;;;;;;;;5016271;28;20262;-77
2022/04/11 05:39:49;;;;;;;9.60;6.90;;;;;;;;;;5019271;28;20195;-77
2022/04/11 05:42:14;;;;;;;21.33;15.90;;;;;;;;;;5023232;28;20237;-77
2022/04/11 05:44:39;;;;;;;9.17;7.07;;;;;;;;;;5021284;28;20174;-77
2022/04/11 05:47:04;;;;;;;10.23;6.70;;;;;;;;;;5014039;28;20233;-78
2022/04/11 05:49:30;;;;;;;7.37;6.40;;;;;;;;;;5023855;28;20203;-77
2022/04/11 05:51:55;;;;;;;7.43;6.57;;;;;;;;;;5024242;28;20178;-76
2022/04/11 05:54:20;;;;;;;24.93;23.00;;;;;;;;;;5015823;28;20190;-77
2022/04/11 05:56:45;;;;;;;8.53;6.27;;;;;;;;;;5012075;28;20190;-77
2022/04/11 05:59:10;;;;;;;8.77;7.47;;;;;;;;;;5021762;28;20221;-77
2022/04/11 06:01:35;;;;;;;9.63;7.33;;;;;;;;;;5019188;28;20174;-77
2022/04/11 06:04:01;;;;;;;9.97;7.37;;;;;;;;;;5014688;28;20186;-77
2022/04/11 06:06:26;;;;;;;8.33;6.70;;;;;;;;;;5013627;28;20167;-77
2022/04/11 06:08:51;;;;;;;9.93;7.20;;;;;;;;;;5019263;28;20168;-77
2022/04/11 06:11:17;;;;;;;7.90;6.67;;;;;;;;;;5016654;28;20553;-77
2022/04/11 06:13:43;;;;;;;8.43;6.63;;;;;;;;;;5018083;28;20179;-77
2022/04/11 06:16:08;;;;;;;7.33;5.97;;;;;;;;;;5022069;28;20189;-77
2022/04/11 06:18:33;;;;;;;7.30;6.50;;;;;;;;;;5027744;28;20226;-77
2022/04/11 06:20:58;;;;;;;8.77;6.30;;;;;;;;;;5025378;28;20289;-77
2022/04/11 06:23:23;;;;;;;10.17;6.70;;;;;;;;;;5020415;28;20166;-77
2022/04/11 06:25:49;;;;;;;9.50;5.87;;;;;;;;;;5019856;28;20203;-78
2022/04/11 06:28:14;;;;;;;6.63;5.77;;;;;;;;;;5023644;28;20190;-78
2022/04/11 06:30:39;;;;;;;9.00;6.10;;;;;;;;;;5019575;28;20183;-78
2022/04/11 06:33:04;;;;;;;8.70;6.17;;;;;;;;;;5016591;28;20199;-78
2022/04/11 06:35:30;;;;;;;7.13;6.40;;;;;;;;;;5026526;28;20210;-78
2022/04/11 06:37:55;;;;;;;9.80;7.10;;;;;;;;;;5022135;28;20206;-78
2022/04/11 06:40:20;;;;;;;15.27;8.73;;;;;;;;;;5021631;28;20207;-78
2022/04/11 06:42:45;;;;;;;10.80;7.87;;;;;;;;;;5016611;28;20187;-78
2022/04/11 06:45:11;;;;;;;13.10;8.63;;;;;;;;;;5029099;28;20229;-78
2022/04/11 06:47:36;;;;;;;11.47;8.63;;;;;;;;;;5023314;28;20173;-78
2022/04/11 06:50:01;;;;;;;5.97;5.43;;;;;;;;;;5013467;28;20224;-78
2022/04/11 06:52:26;;;;;;;12.37;8.70;;;;;;;;;;5023002;28;20175;-78
2022/04/11 06:54:52;;;;;;;11.17;7.80;;;;;;;;;;5019313;28;20246;-78
2022/04/11 06:57:17;;;;;;;8.97;6.57;;;;;;;;;;5022623;28;20237;-78
2022/04/11 06:59:42;;;;;;;15.07;7.13;;;;;;;;;;5024254;28;20232;-78
2022/04/11 07:02:07;;;;;;;8.03;7.10;;;;;;;;;;5020064;28;20195;-78
2022/04/11 07:04:32;;;;;;;6.73;6.03;;;;;;;;;;5017966;28;20252;-78
2022/04/11 07:06:58;;;;;;;7.63;6.40;;;;;;;;;;5024876;28;20265;-78
2022/04/11 07:09:23;;;;;;;6.77;5.73;;;;;;;;;;5024537;28;20223;-78
2022/04/11 07:11:48;;;;;;;10.00;6.60;;;;;;;;;;5018518;28;22348;-79
2022/04/11 07:14:13;;;;;;;8.47;7.53;;;;;;;;;;5018928;28;20186;-78
2022/04/11 07:16:38;;;;;;;6.87;5.10;;;;;;;;;;5025385;28;20270;-79
2022/04/11 07:19:04;;;;;;;6.73;6.03;;;;;;;;;;5023189;28;20226;-79
2022/04/11 07:21:29;;;;;;;7.23;5.10;;;;;;;;;;5022448;28;20271;-79
2022/04/11 07:23:54;;;;;;;5.17;4.20;;;;;;;;;;5021476;28;20182;-79
2022/04/11 07:26:32;;;;;;;6.70;4.43;;;;;;;;;;5048539;27;20560;-77
2022/04/11 07:28:58;;;;;;;4.90;4.23;;;;;;;;;;5048486;28;20189;-77
2022/04/11 07:31:23;;;;;;;6.30;4.23;;;;;;;;;;5044921;28;20254;-77
2022/04/11 07:33:49;;;;;;;5.73;4.07;;;;;;;;;;5051142;28;20232;-76
2022/04/11 07:36:14;;;;;;;4.80;4.30;;;;;;;;;;5042647;28;20177;-76
2022/04/11 07:38:39;;;;;;;5.27;4.77;;;;;;;;;;5040779;28;20170;-77
2022/04/11 07:41:04;;;;;;;4.20;3.73;;;;;;;;;;5044586;28;20252;-76
2022/04/11 07:43:29;;;;;;;4.33;3.93;;;;;;;;;;5061475;28;20217;-76
2022/04/11 07:45:55;;;;;;;5.97;4.33;;;;;;;;;;5045318;28;20221;-76
2022/04/11 07:48:20;;;;;;;6.73;4.40;;;;;;;;;;5045165;28;20170;-77
2022/04/11 07:50:46;;;;;;;4.93;3.97;;;;;;;;;;5041518;28;20172;-76
2022/04/11 07:53:11;;;;;;;4.10;3.70;;;;;;;;;;5045138;28;20218;-76
2022/04/11 07:55:36;;;;;;;10.37;4.40;;;;;;;;;;5045305;28;20225;-76
2022/04/11 07:58:01;;;;;;;4.57;3.40;;;;;;;;;;5060844;28;20174;-76
2022/04/11 08:00:28;;;;;;;4.23;3.30;;;;;;;;;;5045597;28;20189;-76
2022/04/11 08:02:54;;;;;;;4.33;3.47;;;;;;;;;;5058579;28;20212;-75
2022/04/11 08:05:19;;;;;;;3.90;3.50;;;;;;;;;;5049591;28;20245;-75
2022/04/11 08:07:45;;;;;;;16.43;6.63;;;;;;;;;;5042117;28;20313;-75
2022/04/11 08:10:10;;;;;;;3.97;3.00;;;;;;;;;;5041090;28;20179;-75
2022/04/11 08:12:36;;;;;;;3.27;2.97;;;;;;;;;;5040949;28;20210;-75
2022/04/11 08:15:01;;;;;;;4.23;3.40;;;;;;;;;;5038567;28;20223;-77
2022/04/11 08:17:26;;;;;;;4.03;2.47;;;;;;;;;;5037528;28;20182;-77
2022/04/11 08:19:51;;;;;;;4.93;2.93;;;;;;;;;;5041089;28;20269;-77
2022/04/11 08:22:17;;;;;;;4.27;3.87;;;;;;;;;;5038623;28;20197;-77
2022/04/11 08:24:42;;;;;;;3.67;3.00;;;;;;;;;;5037930;28;20293;-74
2022/04/11 08:27:07;;;;;;;4.70;3.30;;;;;;;;;;5042673;28;20183;-75
2022/04/11 08:29:32;;;;;;;3.60;3.30;;;;;;;;;;5034407;28;20175;-74
2022/04/11 08:31:57;;;;;;;5.73;3.37;;;;;;;;;;5034656;28;20178;-75
2022/04/11 08:34:23;;;;;;;3.60;3.17;;;;;;;;;;5049805;28;20171;-74
2022/04/11 08:36:48;;;;;;;4.20;3.80;;;;;;;;;;5029714;28;20178;-75
2022/04/11 08:39:14;;;;;;;4.30;3.60;;;;;;;;;;5026700;28;20179;-74
2022/04/11 08:41:39;;;;;;;4.30;3.33;;;;;;;;;;5032595;28;20175;-74
2022/04/11 08:44:05;;;;;;;3.97;3.53;;;;;;;;;;5044755;28;20176;-74
2022/04/11 08:46:31;;;;;;;4.47;4.07;;;;;;;;;;5022076;28;20203;-74
2022/04/11 08:48:56;;;;;;;4.80;4.40;;;;;;;;;;5028639;28;20209;-74
2022/04/11 08:51:22;;;;;;;5.13;3.50;;;;;;;;;;5027768;28;20266;-75
2022/04/11 08:53:47;;;;;;;5.03;4.53;;;;;;;;;;5025577;28;20182;-74
2022/04/11 08:56:12;;;;;;;4.00;3.47;;;;;;;;;;5023812;28;20270;-74
2022/04/11 08:58:37;;;;;;;4.27;2.90;;;;;;;;;;5024114;28;20188;-74
2022/04/11 09:01:02;;;;;;;3.47;3.17;;;;;;;;;;5026881;28;20186;-74
2022/04/11 09:03:28;;;;;;;5.27;3.43;;;;;;;;;;5029542;28;20181;-75
2022/04/11 09:06:06;;;;;;;3.43;3.13;;;;;;;;;;5028434;28;20198;-75
2022/04/11 09:08:51;;;;;;;3.40;3.17;;;;;;;;;;5022602;28;20188;-74
2022/04/11 09:11:34;;;;;;;10.33;4.07;;;;;;;;;;5043277;28;20172;-74
2022/04/11 09:14:00;;;;;;;3.67;3.17;;;;;;;;;;5042438;28;20246;-75
2022/04/11 09:16:26;;;;;;;3.53;3.23;;;;;;;;;;5026337;28;20185;-74
2022/04/11 09:18:52;;;;;;;3.77;3.10;;;;;;;;;;5030521;28;20186;-74
2022/04/11 09:21:18;;;;;;;5.37;3.00;;;;;;;;;;5016587;28;20218;-74
2022/04/11 09:23:44;;;;;;;3.77;2.80;;;;;;;;;;5023590;28;20184;-77
2022/04/11 09:26:22;;;;;;;3.17;2.87;;;;;;;;;;5025468;28;20226;-76
2022/04/11 09:29:03;;;;;;;5.00;2.60;;;;;;;;;;5039829;28;20259;-76
2022/04/11 09:31:29;;;;;;;2.67;2.47;;;;;;;;;;5021642;28;20170;-76
2022/04/11 09:33:54;;;;;;;2.40;2.20;;;;;;;;;;5024189;28;20193;-76
2022/04/11 09:36:20;;;;;;;2.53;2.27;;;;;;;;;;5029288;28;20178;-76
2022/04/11 09:39:01;;;;;;;2.57;2.13;;;;;;;;;;5029453;28;20189;-76
2022/04/11 09:41:28;;;;;;;2.53;2.07;;;;;;;;;;5035581;28;20319;-76
2022/04/11 09:43:53;;;;;;;3.60;2.20;;;;;;;;;;5022947;28;20206;-76
2022/04/11 09:46:19;;;;;;;4.13;2.43;;;;;;;;;;5017166;28;20195;-76
2022/04/11 09:48:44;;;;;;;2.50;2.13;;;;;;;;;;5027784;28;20189;-77
2022/04/11 09:51:11;;;;;;;2.53;2.33;;;;;;;;;;5024299;28;20237;-76
2022/04/11 09:53:36;;;;;;;4.83;2.60;;;;;;;;;;5025727;28;20211;-76
2022/04/11 09:56:03;;;;;;;2.37;2.13;;;;;;;;;;5015532;28;20182;-76
2022/04/11 09:58:28;;;;;;;3.70;2.60;;;;;;;;;;5026522;28;20186;-76
2022/04/11 10:00:53;;;;;;;4.50;2.00;;;;;;;;;;5030118;28;20190;-76
2022/04/11 10:03:24;;;;;;;4.00;2.70;;;;;;;;;;5026353;28;20181;-76
2022/04/11 10:05:50;;;;;;;2.27;2.07;;;;;;;;;;5024070;28;20217;-76
2022/04/11 10:08:15;;;;;;;3.00;2.20;;;;;;;;;;5022778;28;20181;-76
2022/04/11 10:10:41;;;;;;;3.73;2.23;;;;;;;;;;5028346;28;20198;-76
2022/04/11 10:13:07;;;;;;;2.40;1.90;;;;;;;;;;5026520;28;20182;-77
2022/04/11 10:15:32;;;;;;;3.33;2.40;;;;;;;;;;5025009;28;20284;-76
2022/04/11 10:17:58;;;;;;;2.67;2.47;;;;;;;;;;5024251;28;20314;-76
2022/04/11 10:20:24;;;;;;;4.60;2.70;;;;;;;;;;5026759;28;20209;-76
2022/04/11 10:22:54;;;;;;;2.40;2.20;;;;;;;;;;5030447;28;20190;-76
2022/04/11 10:25:20;;;;;;;3.33;2.10;;;;;;;;;;5027616;28;20230;-76
2022/04/11 10:27:45;;;;;;;3.83;2.53;;;;;;;;;;5025553;28;20178;-76
2022/04/11 10:30:27;;;;;;;7.03;5.60;;;;;;;;;;5023214;28;20190;-76
2022/04/11 10:32:54;;;;;;;2.90;2.40;;;;;;;;;;5024065;28;20178;-76
2022/04/11 10:35:31;;;;;;;2.97;2.67;;;;;;;;;;5033592;28;20180;-76
2022/04/11 10:37:56;;;;;;;2.90;2.37;;;;;;;;;;5024684;28;20179;-75
2022/04/11 10:40:22;;;;;;;3.50;2.60;;;;;;;;;;5033215;28;20242;-74
2022/04/11 10:42:59;;;;;;;2.70;2.50;;;;;;;;;;5032589;28;20179;-74
2022/04/11 10:45:39;;;;;;;3.17;2.70;;;;;;;;;;5034278;28;21722;-74
2022/04/11 10:48:04;;;;;;;6.30;5.20;;;;;;;;;;5026380;28;20172;-74
2022/04/11 10:50:34;;;;;;;3.73;2.53;;;;;;;;;;5027017;28;20179;-74
2022/04/11 10:53:24;;;;;;;2.93;2.63;;;;;;;;;;5023723;28;20186;-74
2022/04/11 10:55:54;;;;;;;2.77;2.50;;;;;;;;;;5021916;28;20181;-74
2022/04/11 10:58:20;;;;;;;4.13;3.83;;;;;;;;;;5020614;28;20189;-74
2022/04/11 11:00:45;;;;;;;2.40;2.20;;;;;;;;;;5022069;28;20177;-74
2022/04/11 11:03:13;;;;;;;3.30;3.00;;;;;;;;;;5022772;28;20172;-74
2022/04/11 11:05:41;;;;;;;2.00;1.90;;;;;;;;;;5018653;28;20243;-74
2022/04/11 11:08:09;;;;;;;2.83;2.50;;;;;;;;;;5037013;28;20295;-74
2022/04/11 11:10:44;;;;;;;3.43;2.57;;;;;;;;;;5037207;28;20211;-74
2022/04/11 11:13:30;;;;;;;3.03;2.53;;;;;;;;;;5021116;28;20241;-74
2022/04/11 11:15:56;;;;;;;3.17;2.87;;;;;;;;;;5038976;28;20474;-74
2022/04/11 11:18:22;;;;;;;4.03;2.23;;;;;;;;;;5023410;28;20178;-75
2022/04/11 11:20:52;;;;;;;3.37;2.33;;;;;;;;;;5014901;28;20195;-74
2022/04/11 11:23:30;;;;;;;3.13;2.13;;;;;;;;;;5041423;28;20216;-74
2022/04/11 11:26:05;;;;;;;3.00;2.43;;;;;;;;;;5021829;28;20332;-74
2022/04/11 11:28:30;;;;;;;3.33;2.30;;;;;;;;;;5022374;28;20202;-74
2022/04/11 11:30:56;;;;;;;2.80;2.20;;;;;;;;;;5021915;28;20272;-74
2022/04/11 11:33:21;;;;;;;2.90;2.50;;;;;;;;;;5017954;28;20321;-74
2022/04/11 11:35:49;;;;;;;3.07;2.77;;;;;;;;;;5025338;28;20177;-74
2022/04/11 11:38:14;;;;;;;2.73;2.30;;;;;;;;;;5037606;28;20234;-74
2022/04/11 11:40:43;;;;;;;2.50;1.70;;;;;;;;;;5031235;28;20204;-74
2022/04/11 11:43:12;;;;;;;2.03;1.93;;;;;;;;;;5018242;28;20210;-74
2022/04/11 11:45:38;;;;;;;2.57;2.33;;;;;;;;;;5025909;28;20213;-74
2022/04/11 11:48:23;;;;;;;2.77;2.00;;;;;;;;;;5020988;28;20186;-74
2022/04/11 11:50:49;;;;;;;2.47;2.27;;;;;;;;;;5019995;28;20180;-74
2022/04/11 11:53:14;;;;;;;2.70;2.50;;;;;;;;;;5023971;28;20190;-74
2022/04/11 11:55:59;;;;;;;3.00;2.30;;;;;;;;;;5018975;28;20189;-74
2022/04/11 11:58:37;;;;;;;3.50;2.20;;;;;;;;;;5020093;28;20247;-74
2022/04/11 12:01:03;;;;;;;2.00;1.90;;;;;;;;;;5018424;28;20194;-74
2022/04/11 12:06:12;;;;;;;2.83;2.60;;;;;;;;;;5022848;28;20209;-74
2022/04/11 12:08:37;;;;;;;3.47;2.80;;;;;;;;;;5026853;28;20190;-74
2022/04/11 12:11:03;;;;;;;3.43;2.53;;;;;;;;;;5014644;28;20190;-74
2022/04/11 12:13:32;;;;;;;2.87;2.10;;;;;;;;;;5026241;28;20267;-74
2022/04/11 12:16:08;;;;;;;5.10;2.70;;;;;;;;;;5031867;28;20188;-74
2022/04/11 12:18:46;;;;;;;3.03;2.53;;;;;;;;;;5025532;28;20182;-74
2022/04/11 12:21:11;;;;;;;2.53;2.07;;;;;;;;;;5028847;28;20244;-74
2022/04/11 12:23:43;;;;;;;2.53;1.93;;;;;;;;;;5028626;28;20183;-74
2022/04/11 12:26:08;;;;;;;3.17;2.13;;;;;;;;;;5033449;28;20299;-74
2022/04/11 12:28:34;;;;;;;2.43;2.07;;;;;;;;;;5027912;28;20298;-75
2022/04/11 12:31:02;;;;;;;2.57;2.37;;;;;;;;;;5026362;28;20183;-74
2022/04/11 12:33:42;;;;;;;2.20;2.00;;;;;;;;;;5027435;28;20180;-74
2022/04/11 12:36:11;;;;;;;7.03;2.33;;;;;;;;;;5027614;28;20184;-74
2022/04/11 12:38:45;;;;;;;2.63;2.40;;;;;;;;;;5018940;28;20550;-74
2022/04/11 12:41:23;;;;;;;2.27;2.00;;;;;;;;;;5037844;28;20234;-74
2022/04/11 12:44:07;;;;;;;2.40;1.97;;;;;;;;;;5028410;28;20190;-74
2022/04/11 12:46:37;;;;;;;12.90;2.93;;;;;;;;;;5033473;28;20335;-74
2022/04/11 12:49:02;;;;;;;3.67;2.43;;;;;;;;;;5016457;28;20178;-74
2022/04/11 12:51:28;;;;;;;3.17;2.53;;;;;;;;;;5025456;28;20232;-74
2022/04/11 12:54:07;;;;;;;4.00;2.67;;;;;;;;;;5027695;28;20189;-74
2022/04/11 12:56:37;;;;;;;2.57;1.90;;;;;;;;;;5031039;28;20384;-74
2022/04/11 12:59:02;;;;;;;4.90;1.93;;;;;;;;;;5026110;28;20220;-75
2022/04/11 13:01:46;;;;;;;5.47;2.67;;;;;;;;;;5023990;28;20205;-74
2022/04/11 13:04:11;;;;;;;2.47;2.10;;;;;;;;;;5033732;28;20212;-74
2022/04/11 13:06:36;;;;;;;3.97;2.30;;;;;;;;;;5026385;28;20208;-74
2022/04/11 13:09:02;;;;;;;2.10;2.00;;;;;;;;;;5025330;28;20178;-74
2022/04/11 13:11:27;;;;;;;2.57;2.20;;;;;;;;;;5040372;28;20188;-74
2022/04/11 13:13:52;;;;;;;1.77;1.67;;;;;;;;;;5021020;28;20186;-74
2022/04/11 13:19:01;;;;;;;2.03;1.73;;;;;;;;;;5023563;28;20239;-74
2022/04/11 13:21:26;;;;;;;2.37;2.10;;;;;;;;;;5021254;28;20185;-74
2022/04/11 13:23:51;;;;;;;4.93;2.33;;;;;;;;;;5026082;28;20229;-74
2022/04/11 13:26:17;;;;;;;3.38;2.13;;;;;;;;;;5021994;28;20220;-74
2022/04/11 13:28:42;;;;;;;3.77;2.30;;;;;;;;;;5023339;28;20190;-74
2022/04/11 13:31:08;;;;;;;2.50;1.77;;;;;;;;;;5020423;28;20179;-74
2022/04/11 13:33:33;;;;;;;2.37;1.70;;;;;;;;;;5023718;28;20171;-74
2022/04/11 13:35:59;;;;;;;2.17;1.83;;;;;;;;;;5025800;28;20270;-74
2022/04/11 13:38:24;;;;;;;1.90;1.70;;;;;;;;;;5029042;28;20182;-74
2022/04/11 13:40:49;;;;;;;3.37;2.60;;;;;;;;;;5028254;28;20174;-74
2022/04/11 13:43:15;;;;;;;2.53;2.00;;;;;;;;;;5024646;28;20213;-74
2022/04/11 13:45:43;;;;;;;3.33;1.90;;;;;;;;;;5024938;28;20205;-74
2022/04/11 13:48:09;;;;;;;5.23;2.10;;;;;;;;;;5036759;28;20227;-74
2022/04/11 13:50:35;;;;;;;2.70;2.33;;;;;;;;;;5018811;28;20214;-74
2022/04/11 13:53:01;;;;;;;2.47;1.80;;;;;;;;;;5013667;28;20185;-74
2022/04/11 13:55:26;;;;;;;2.17;1.90;;;;;;;;;;5027908;28;20184;-74
2022/04/11 13:57:51;;;;;;;16.93;3.83;;;;;;;;;;5025867;28;20183;-74
2022/04/11 14:00:18;;;;;;;2.83;1.83;;;;;;;;;;5043861;28;20276;-74
2022/04/11 14:02:44;;;;;;;2.00;1.80;;;;;;;;;;5024803;28;20227;-74
2022/04/11 14:05:09;;;;;;;3.13;1.73;;;;;;;;;;5025508;28;21487;-74
2022/04/11 14:07:34;;;;;;;1.77;1.67;;;;;;;;;;5037135;28;20169;-74
2022/04/11 14:09:59;;;;;;;3.33;2.17;;;;;;;;;;5024320;28;20173;-74
2022/04/11 14:12:25;;;;;;;1.70;1.60;;;;;;;;;;5019820;28;20181;-74
2022/04/11 14:14:50;;;;;;;1.70;1.60;;;;;;;;;;5026151;28;20172;-74
2022/04/11 14:17:15;;;;;;;9.47;3.43;;;;;;;;;;5017765;28;20274;-74
2022/04/11 14:19:40;;;;;;;1.90;1.80;;;;;;;;;;5025948;28;20180;-74
2022/04/11 14:22:07;;;;;;;4.27;3.20;;;;;;;;;;5018933;28;20464;-74
2022/04/11 14:24:32;;;;;;;2.83;1.90;;;;;;;;;;5026470;28;20234;-74
2022/04/11 14:26:57;;;;;;;2.67;2.30;;;;;;;;;;5026976;28;20182;-74
2022/04/11 14:29:22;;;;;;;2.53;1.63;;;;;;;;;;5036588;28;20248;-74
2022/04/11 14:31:47;;;;;;;3.50;2.00;;;;;;;;;;5021702;28;20182;-74
2022/04/11 14:34:12;;;;;;;3.03;1.90;;;;;;;;;;5032692;28;20250;-74
2022/04/11 14:36:37;;;;;;;1.87;1.63;;;;;;;;;;5036615;28;20185;-74
2022/04/11 14:39:03;;;;;;;1.60;1.50;;;;;;;;;;5017429;28;20239;-74
2022/04/11 14:41:28;;;;;;;6.30;1.90;;;;;;;;;;5021897;28;20185;-74